AirNav   Air Wisconsin Up To $57,000 Bonus
 
 416 users online  

KXLL Allentown Queen City Municipal Airport
Allentown, Pennsylvania, USA

GOING TO ALLENTOWN?


FAA INFORMATION EFFECTIVE 16 JUNE 2022

Location

FAA Identifier: XLL
Lat/Long: 40-34-13.0000N 075-29-17.9000W
40-34.216667N 075-29.298333W
40.5702778,-75.4883056
(estimated)
Elevation: 399 ft. / 121.6 m (surveyed)
Variation: 12W (2005)
From city: 2 miles SW of ALLENTOWN, PA
Time zone: UTC -4 (UTC -5 during Standard Time)
Zip code: 18103

Airport Operations

Airport use: Open to the public
Control tower: no
ARTCC: NEW YORK CENTER
FSS: WILLIAMSPORT FLIGHT SERVICE STATION
NOTAMs facility: IPT (NOTAM-D service available)
Attendance: 0700-1800
Wind indicator: lighted
Segmented circle: no
Lights: ACTVT REIL RWY 07/25; MIRL RWY 07/25 & 15/33 - CTAF.
Beacon: white-green (lighted land airport)
Operates sunset to sunrise.

Airport Communications

CTAF/UNICOM: 122.7
WX AWOS-3: 127.875 (610-231-3111)
ALLENTOWN APPROACH: 119.65 ;3000 FT & BLW 124.45 ;ABV 3000 FT
ALLENTOWN DEPARTURE: 119.65 ;3000 FT & BLW 124.45 ;ABV 3000 FT
CLEARANCE DELIVERY: 118.9
IC: 119.65 ;3000 FT & BLW 124.45 ;ABV 3000 FT
WX ASOS at ABE (5 nm NE): 126.975 (610-264-1765)
WX AWOS-3 at UKT (9 nm SE): 119.475 (215-538-7610)
WX AWOS-3 at CKZ (14 nm SE): 126.325 (215-257-7291)
WX AWOS-3PT at 22N (19 nm NW): 119.350 (570-386-3423)

Airport Services

Fuel available: 100LL JET-A
Parking: hangars and tiedowns
Airframe service: MINOR
Powerplant service: MINOR
Bulk oxygen: NONE

Runway Information

Runway 7/25

Dimensions: 3950 x 75 ft. / 1204 x 23 m
Surface: asphalt/grooved, in good condition
Weight bearing capacity: 
Single wheel: 12.0
Runway edge lights: medium intensity
RUNWAY 7  RUNWAY 25
Latitude: 40-33.994163N40-34.336500N
Longitude: 075-29.656837W075-28.931502W
Elevation: 386.4 ft.387.8 ft.
Traffic pattern: leftleft
Runway heading: 070 magnetic, 058 true250 magnetic, 238 true
Markings: nonprecision, in good conditionbasic, in good condition
Visual slope indicator: 4-light PAPI on left (3.00 degrees glide path)4-light PAPI on left (3.50 degrees glide path)
UNUSBL BYD 3 DEG L OF COURSE.
Runway end identifier lights: yesyes
Touchdown point: yes, no lightsyes, no lights
Obstructions: none23 ft. pole, lighted, 635 ft. from runway, 112 ft. left of centerline, 19:1 slope to clear

Runway 15/33

Dimensions: 3160 x 75 ft. / 963 x 23 m
Surface: asphalt, in good condition
Weight bearing capacity: 
Single wheel: 12.0
Runway edge lights: medium intensity
RUNWAY 15  RUNWAY 33
Latitude: 40-34.465998N40-34.097832N
Longitude: 075-29.544667W075-29.062332W
Elevation: 386.1 ft.399.0 ft.
Traffic pattern: leftleft
Runway heading: 147 magnetic, 135 true327 magnetic, 315 true
Markings: basic, in good conditionbasic, in good condition
Touchdown point: yes, no lightsyes, no lights

Airport Ownership and Management from official FAA records

Ownership: Publicly-owned
Owner: LEHIGH NORTHAM ARPT AUTH
3311 AIRPORT RD
ALLENTOWN, PA 18109
Phone 610-266-6001
Manager: THOMAS R. STOUDT
1730 VULTEE STREET
ALLENTOWN, PA 18109
Phone 610-791-5193

Airport Operational Statistics

Aircraft based on the field: 68
Single engine airplanes: 52
Multi engine airplanes: 12
Jet airplanes: 1
Helicopters: 3
    
Aircraft operations: avg 69/day *
87% local general aviation
10% transient general aviation
2% air taxi
<1% military
* for 12-month period ending 21 May 2022

Additional Remarks

DEER, GROUNDHOGS AND BIRDS ON & INVOF ARPT.
NOISE ABATEMENT PROC IN EFCT, FOR DETAILS CTC ARPT MGR.
FOR SVC AFT HRS CTC 610-266-6000.
FOR CD CTC ALLENTOWN APCH AT 800-728-6322.

Instrument Procedures

NOTE: All procedures below are presented as PDF files. If you need a reader for these files, you should download the free Adobe Reader.

NOT FOR NAVIGATION. Please procure official charts for flight.
FAA instrument procedures published for use from 16 June 2022 at 0901Z to 14 July 2022 at 0900z.

 
IAPs - Instrument Approach Procedures
RNAV (GPS) RWY 07   download (226KB)
NOTE: Special Alternate Minimums apply   download (123KB)
NOTE: Special Take-Off Minimums/Departure Procedures apply   download (149KB)

Other nearby airports with instrument procedures:

KABE - Lehigh Valley International Airport (5 nm NE)
KUKT - Quakertown Airport (9 nm SE)
KCKZ - Pennridge Airport (14 nm SE)
N43 - Braden Airpark (15 nm NE)
22N - Jake Arner Memorial Airport (19 nm NW)
 
Loc | Ops | Rwys | IFR | FBO | Links
Com | Nav | Svcs | Stats | Notes
Area around KXLL (Allentown Queen City Municipal Airport)
 
Road maps at: MapQuest Bing Google
 
Aerial photo
WARNING: Photo may not be current or correct
Aerial photo of KXLL (Allentown Queen City Municipal Airport)
Photo courtesy of EagleView Reveal Imagery
Taken in 2019
looking north.

Do you have a better or more recent aerial photo of Allentown Queen City Municipal Airport that you would like to share? If so, please send us your photo.

 
Sectional chart

 
Airport distance calculator
Flying to Allentown Queen City Municipal Airport? Find the distance to fly.

From to KXLL

Sunrise and sunset
Times for 27-Jun-2022
 Local
(UTC-4)
 Zulu
(UTC)
Morning civil twilight05:0109:01
Sunrise05:3409:34
Sunset20:3600:36
Evening civil twilight21:0901:09

Current date and time
Zulu (UTC)  27-Jun-2022 09:52:21
Local (UTC-4)  27-Jun-2022 05:52:21
 
METAR
KXLL 270935Z AUTO 21005KT 10SM SCT110 22/19 A2995 RMK AO2
KABE 
5nm N 
270851Z 21004KT 10SM -RA SCT050 OVC100 22/19 A2994 RMK AO2 RAE08B44 SLP134 P0000 60000 T02170189 57015
KUKT 
9nm SE 
270935Z AUTO 21006KT 10SM OVC014 22/20 A2996 RMK A01
KCKZ 
14nm SE 
270935Z AUTO 21003KT 10SM OVC016 22/21 A2997 RMK AO2
K22N 
19nm NW 
270935Z AUTO 00000KT 4SM BR OVC010 21/20 A2995 RMK AO2
TAF
KABE 
5nm N 
270520Z 2706/2806 20005KT P6SM SCT050 OVC100 FM271000 22005KT 6SM -RA BR OVC015 TEMPO 2710/2714 4SM -SHRA BR FM271400 28008KT P6SM OVC025 TEMPO 2714/2716 4SM SHRA OVC010 FM271600 30008KT P6SM OVC050 TEMPO 2716/2719 4SM SHRA OVC015 FM271900 30008KT P6SM SCT050 OVC200 FM280100 32006KT P6SM SKC
NOTAMs
Click for the latest NOTAMs
NOTAMs are issued by the DoD/FAA and will open in a separate window not controlled by AirNav.

 

 
 

FBO, Fuel Providers, and Aircraft Ground Support

  
 Business Name 
 
 Contact 
 
 Services / Description 
 
Fuel Prices
 
Comments
  
 Lehigh Valley Aviation Services
UNICOM 122.70
610-791-5193
[web site]
[email]
Queen City Airport (XLL) is perfect for light jets, turbine, twin-engine and single-engine aircraft. XLL serves as a significant asset for the Lehigh Valley and has cemented a strong foundation in aviation history. We are a Safety 1st Clean certified facility.
 
NATA Safety 1st  
 
More info about Lehigh Valley Aviation Services
Phillips 66
100LL Jet A
FS $8.20 $6.96 
GUARANTEED
 
   1 read write
FS=Full service
Update Fuel Prices
 

Would you like to see your business listed on this page?

 If your business provides an interesting product or service to pilots, flight crews, aircraft, or users of the Allentown Queen City Municipal Airport, you should consider listing it here.  To start the listing process, click on the button below
 
Add a business
 

Other Pages about Allentown Queen City Municipal Airport

www.flyxll.com
 
Update a link
 
Copyright © AirNav, LLC. All rights reserved. Privacy Policy  Contact